Time;durP1;ratioP1;P1;durP2;ratioP2;P2;SDS_P1;SDS_P2;PMS_P1;PMS_P2;Temp;Humidity;BMP_temperature;BMP_pressure;BME280_temperature;BME280_humidity;BME280_pressure;Samples;Min_cycle;Max_cycle;Signal;HPM_P1;HPM_P2
2024/04/07 00:08:30;;;;;;;23.70;19.00;;;;;;;9.18;92.53;99752.50;446362;1240;139943;-58
2024/04/07 00:18:34;;;;;;;28.50;18.60;;;;;;;9.23;94.76;99751.02;444353;1241;5213533;-60
2024/04/07 00:28:37;;;;;;;24.50;20.80;;;;;;;9.43;96.10;99747.59;447244;1241;139715;-59
2024/04/07 00:38:41;;;;;;;19.40;15.70;;;;;;;9.55;95.96;99751.10;446753;1240;140084;-63
2024/04/07 00:48:44;;;;;;;18.00;15.10;;;;;;;9.62;95.45;99745.13;446814;1241;139919;-62
2024/04/07 00:58:48;;;;;;;20.70;15.70;;;;;;;9.54;94.76;99747.30;446971;1241;140055;-59
2024/04/07 01:08:54;;;;;;;18.80;16.70;;;;;;;9.47;94.86;99752.95;446843;1241;139505;-59
2024/04/07 01:18:57;;;;;;;19.40;16.00;;;;;;;9.38;94.34;99777.23;446862;1241;139875;-56
2024/04/07 01:29:00;;;;;;;19.30;15.60;;;;;;;9.21;94.12;99777.66;446472;1241;139459;-58
2024/04/07 01:39:07;;;;;;;19.50;14.80;;;;;;;9.09;94.69;99773.60;447149;1241;139868;-57
2024/04/07 01:49:10;;;;;;;21.70;16.30;;;;;;;9.02;95.40;99772.73;446552;1239;138564;-57
2024/04/07 01:59:13;;;;;;;19.20;15.60;;;;;;;9.00;95.97;99762.38;446750;1241;139572;-67
2024/04/07 02:09:20;;;;;;;16.60;14.60;;;;;;;9.09;97.04;99746.15;446835;1241;139947;-67
2024/04/07 02:19:23;;;;;;;21.90;16.20;;;;;;;9.21;97.47;99738.68;446662;1239;139934;-63
2024/04/07 02:29:28;;;;;;;24.50;17.40;;;;;;;9.34;97.67;99730.48;446935;1241;140038;-64
2024/04/07 02:39:32;;;;;;;22.80;16.00;;;;;;;9.38;97.61;99733.21;446533;1237;140642;-58
2024/04/07 02:49:35;;;;;;;17.40;15.40;;;;;;;9.44;97.80;99722.06;446948;1240;139519;-59
2024/04/07 02:59:39;;;;;;;19.90;14.80;;;;;;;9.52;98.12;99722.15;446549;1241;139323;-59
2024/04/07 03:09:42;;;;;;;15.60;12.10;;;;;;;9.61;98.31;99718.25;446633;1241;139388;-58
2024/04/07 03:19:47;;;;;;;19.00;13.10;;;;;;;9.64;98.16;99725.61;446616;1241;139410;-58
2024/04/07 03:29:53;;;;;;;17.20;13.10;;;;;;;9.68;98.20;99723.65;447198;1238;139796;-68
2024/04/07 03:39:57;;;;;;;15.10;11.80;;;;;;;9.66;97.82;99730.58;446660;1238;139971;-67
2024/04/07 03:50:00;;;;;;;17.70;13.80;;;;;;;9.58;97.91;99742.24;446870;1240;140891;-64
2024/04/07 04:00:06;;;;;;;15.90;13.20;;;;;;;9.51;98.04;99744.86;446791;1238;139502;-63
2024/04/07 04:10:10;;;;;;;18.50;13.90;;;;;;;9.44;98.05;99743.02;447325;1240;139373;-64
2024/04/07 04:20:15;;;;;;;15.30;13.30;;;;;;;9.43;98.38;99741.34;446903;1238;139616;-63
2024/04/07 04:30:21;;;;;;;16.80;12.40;;;;;;;9.62;99.25;99743.58;446735;1239;139516;-60
2024/04/07 04:40:26;;;;;;;17.70;13.10;;;;;;;9.96;99.12;99750.01;446635;1238;139892;-59
2024/04/07 04:50:32;;;;;;;14.00;12.50;;;;;;;10.43;98.96;99747.95;446655;1240;140052;-58
2024/04/07 05:00:38;;;;;;;16.60;11.40;;;;;;;11.06;98.16;99745.95;446878;1241;139616;-58
2024/04/07 05:10:43;;;;;;;13.70;11.30;;;;;;;11.81;96.83;99742.60;446593;1241;139971;-59
2024/04/07 05:20:46;;;;;;;14.10;10.10;;;;;;;12.86;95.44;99740.67;446284;1241;139749;-58
2024/04/07 05:30:50;;;;;;;12.30;10.20;;;;;;;15.27;94.51;99734.11;446662;1241;140265;-67
2024/04/07 05:40:56;;;;;;;10.00;8.10;;;;;;;19.07;87.46;99720.44;446421;1241;140444;-66
2024/04/07 05:51:00;;;;;;;9.00;8.00;;;;;;;22.31;77.48;99723.01;448514;1240;139970;-68
2024/04/07 06:01:07;;;;;;;8.80;7.10;;;;;;;24.47;70.84;99725.75;450091;1241;137778;-59
2024/04/07 06:11:10;;;;;;;8.30;7.50;;;;;;;26.21;64.80;99726.45;448782;1236;139759;-59
2024/04/07 06:21:16;;;;;;;7.40;6.60;;;;;;;27.91;59.84;99727.98;448365;1239;139077;-63
2024/04/07 06:31:21;;;;;;;24.50;9.30;;;;;;;29.36;54.76;99732.52;448232;1240;139418;-64
2024/04/07 06:41:25;;;;;;;7.40;6.70;;;;;;;30.76;51.33;99729.47;448922;1240;139328;-58
2024/04/07 06:51:31;;;;;;;10.00;7.00;;;;;;;32.98;48.11;99725.39;448321;1236;138949;-61
2024/04/07 07:01:35;;;;;;;10.80;6.70;;;;;;;33.29;43.85;99729.27;448386;1238;139248;-59
2024/04/07 07:11:38;;;;;;;6.00;5.40;;;;;;;32.52;42.94;99740.69;449583;1240;138753;-59
2024/04/07 07:21:41;;;;;;;9.10;6.40;;;;;;;32.97;42.39;99747.04;449452;1240;138798;-60
2024/04/07 07:31:47;;;;;;;5.90;5.20;;;;;;;32.53;40.65;99751.10;448663;1238;138752;-58
2024/04/07 07:41:51;;;;;;;6.30;5.40;;;;;;;31.98;40.69;99752.59;448555;1241;138642;-64
2024/04/07 07:51:54;;;;;;;5.80;4.20;;;;;;;32.55;40.65;99750.73;449440;1236;139112;-64
2024/04/07 08:01:58;;;;;;;6.30;4.80;;;;;;;34.64;40.19;99760.00;448389;1238;138331;-64
2024/04/07 08:12:02;;;;;;;4.00;3.00;;;;;;;38.66;37.22;99753.20;448336;1240;139076;-64
2024/04/07 08:22:06;;;;;;;4.40;2.20;;;;;;;39.26;32.98;99761.05;448995;1237;139198;-64
2024/04/07 08:32:09;;;;;;;4.60;2.70;;;;;;;40.03;31.69;99761.77;449016;1241;139087;-65
2024/04/07 08:42:19;;;;;;;2.40;2.20;;;;;;;39.81;29.91;99758.83;448375;1240;138873;-59
2024/04/07 08:52:25;;;;;;;4.80;2.80;;;;;;;35.08;30.14;99743.00;449074;1238;152734;-58
2024/04/07 09:02:31;;;;;;;2.50;2.30;;;;;;;31.70;32.40;99736.29;448957;1236;139427;-58
2024/04/07 09:12:35;;;;;;;2.50;1.90;;;;;;;29.88;34.35;99731.34;446583;1241;139094;-59
2024/04/07 09:22:39;;;;;;;3.30;2.70;;;;;;;28.61;35.87;99733.52;447467;1240;139589;-60
2024/04/07 09:32:43;;;;;;;3.30;2.10;;;;;;;27.71;37.76;99721.46;446665;1241;139935;-59
2024/04/07 09:42:47;;;;;;;2.80;2.40;;;;;;;26.87;38.84;99717.48;448389;1238;139514;-59
2024/04/07 09:52:52;;;;;;;2.60;2.20;;;;;;;26.06;40.41;99707.94;446917;1238;138899;-65
2024/04/07 10:02:56;;;;;;;4.00;2.10;;;;;;;25.62;41.30;99686.49;446130;1240;140649;-66
2024/04/07 10:13:08;;;;;;;2.60;2.40;;;;;;;25.12;41.85;99677.02;447528;1240;138564;-58
2024/04/07 10:23:13;;;;;;;2.80;1.70;;;;;;;24.41;43.10;99667.59;447216;1236;138965;-59
2024/04/07 10:33:20;;;;;;;2.00;1.80;;;;;;;24.29;44.07;99669.46;446727;1240;139534;-59
2024/04/07 10:43:23;;;;;;;2.20;2.00;;;;;;;24.24;44.53;99663.25;446348;1241;139287;-60
2024/04/07 10:53:29;;;;;;;1.70;1.60;;;;;;;24.01;44.95;99656.94;447439;1238;139232;-58
2024/04/07 11:03:33;;;;;;;2.10;1.60;;;;;;;23.86;45.59;99667.95;447960;1237;139835;-58
2024/04/07 11:13:37;;;;;;;2.00;1.70;;;;;;;23.85;46.04;99676.38;447453;1241;138596;-59
2024/04/07 11:23:41;;;;;;;3.50;2.60;;;;;;;23.73;46.38;99668.61;447164;1236;138423;-57
2024/04/07 11:33:47;;;;;;;3.10;2.10;;;;;;;23.79;47.28;99663.99;446499;1236;138637;-58
2024/04/07 11:43:52;;;;;;;2.40;1.90;;;;;;;24.01;47.22;99657.48;446607;1236;139452;-57
2024/04/07 11:53:55;;;;;;;3.40;2.20;;;;;;;24.01;47.53;99655.30;447749;1240;139052;-58
2024/04/07 12:04:00;;;;;;;2.80;2.10;;;;;;;24.16;47.45;99646.02;447943;1240;139529;-58
2024/04/07 12:14:06;;;;;;;3.80;1.50;;;;;;;24.27;47.36;99631.52;443253;1237;5103089;-58
2024/04/07 12:24:10;;;;;;;3.10;1.50;;;;;;;24.64;47.43;99628.06;446046;1240;139685;-58
2024/04/07 12:34:13;;;;;;;1.60;1.50;;;;;;;24.96;46.43;99621.84;446853;1240;139208;-57
2024/04/07 12:44:17;;;;;;;1.40;1.30;;;;;;;24.93;46.23;99610.77;448072;1240;138715;-63
2024/04/07 12:54:23;;;;;;;2.00;1.50;;;;;;;24.84;46.32;99589.50;446365;1241;138995;-63
2024/04/07 13:04:27;;;;;;;2.10;1.80;;;;;;;24.78;46.46;99575.47;446314;1240;138853;-63
2024/04/07 13:14:30;;;;;;;3.80;1.80;;;;;;;24.81;46.52;99572.46;447779;1236;138704;-63
2024/04/07 13:24:34;;;;;;;3.10;2.50;;;;;;;24.73;46.54;99561.33;447481;1241;138995;-58
2024/04/07 13:34:37;;;;;;;4.90;3.40;;;;;;;24.75;46.56;99554.54;446363;1241;138853;-59
2024/04/07 13:44:40;;;;;;;8.40;7.60;;;;;;;24.68;46.80;99550.95;446532;1241;139160;-61
2024/04/07 13:54:44;;;;;;;2.90;1.70;;;;;;;24.67;47.02;99552.43;446383;1241;139253;-61
2024/04/07 14:04:47;;;;;;;3.80;2.10;;;;;;;24.60;47.26;99544.58;446334;1239;139106;-58
2024/04/07 14:14:55;;;;;;;3.30;1.50;;;;;;;24.60;47.76;99546.55;446689;1237;138758;-58
2024/04/07 14:25:01;;;;;;;4.50;1.90;;;;;;;24.63;47.73;99550.62;446637;1236;139089;-59
2024/04/07 14:35:05;;;;;;;1.60;1.30;;;;;;;24.66;47.97;99550.86;446303;1240;139360;-58
2024/04/07 14:45:09;;;;;;;3.90;1.50;;;;;;;24.68;48.00;99552.56;448275;1240;139504;-57
2024/04/07 14:55:12;;;;;;;2.00;1.70;;;;;;;24.68;48.12;99543.89;448148;1239;138707;-58
2024/04/07 15:05:16;;;;;;;2.90;1.30;;;;;;;24.68;48.11;99531.27;446836;1236;139175;-65
2024/04/07 15:15:21;;;;;;;3.30;2.10;;;;;;;24.63;48.02;99524.52;446777;1240;139593;-64
2024/04/07 15:25:28;;;;;;;3.70;1.50;;;;;;;24.61;48.13;99512.85;446915;1236;138596;-64
2024/04/07 15:35:33;;;;;;;1.60;1.50;;;;;;;24.49;48.35;99510.69;447275;1240;139325;-64
2024/04/07 15:45:37;;;;;;;5.10;2.00;;;;;;;24.35;48.65;99505.34;446449;1240;139217;-64
2024/04/07 15:55:42;;;;;;;1.40;1.30;;;;;;;24.10;49.26;99497.67;446995;1242;138544;-64
2024/04/07 16:05:46;;;;;;;2.00;1.40;;;;;;;23.81;50.04;99490.00;447199;1238;139563;-64
2024/04/07 16:15:49;;;;;;;1.60;1.40;;;;;;;23.58;50.89;99476.34;447484;1240;139019;-61
2024/04/07 16:25:52;;;;;;;4.00;2.10;;;;;;;23.46;51.43;99482.05;446765;1241;139354;-61
2024/04/07 16:35:57;;;;;;;3.40;2.70;;;;;;;23.30;51.78;99476.95;446595;1240;138885;-59
2024/04/07 16:46:01;;;;;;;2.60;1.90;;;;;;;23.04;52.10;99473.30;446595;1239;138575;-59
2024/04/07 16:56:07;;;;;;;2.70;2.30;;;;;;;22.67;52.61;99470.95;448323;1241;138477;-59
2024/04/07 17:06:10;;;;;;;5.50;3.20;;;;;;;22.28;53.32;99463.13;447135;1240;138696;-59
2024/04/07 17:16:14;;;;;;;5.90;2.70;;;;;;;21.83;54.41;99458.11;448441;1240;138515;-63
2024/04/07 17:26:20;;;;;;;8.50;3.10;;;;;;;21.42;55.41;99460.25;446721;1241;138647;-63
2024/04/07 17:36:24;;;;;;;5.50;2.90;;;;;;;21.02;56.32;99457.77;446929;1240;138498;-65
2024/04/07 17:46:29;;;;;;;2.90;2.20;;;;;;;20.64;57.51;99469.67;446358;1240;139279;-64
2024/04/07 17:56:35;;;;;;;3.50;3.10;;;;;;;20.31;58.14;99496.12;446839;1240;139550;-64
2024/04/07 18:06:38;;;;;;;4.20;2.90;;;;;;;20.00;58.81;99508.09;446951;1240;138981;-64
2024/04/07 18:16:42;;;;;;;4.70;3.40;;;;;;;19.74;59.20;99515.41;446565;1241;139148;-60
2024/04/07 18:26:45;;;;;;;3.10;2.30;;;;;;;19.53;59.53;99522.64;446512;1241;139229;-58
2024/04/07 18:36:49;;;;;;;2.90;1.90;;;;;;;19.37;59.80;99526.58;446942;1240;138465;-58
2024/04/07 18:46:52;;;;;;;3.50;2.60;;;;;;;19.25;60.03;99529.02;447225;1241;138633;-59
2024/04/07 18:56:55;;;;;;;3.90;2.60;;;;;;;19.16;60.32;99536.15;447118;1240;139328;-60
2024/04/07 19:06:59;;;;;;;5.60;2.70;;;;;;;19.08;60.46;99528.61;446930;1241;139028;-59
2024/04/07 19:17:02;;;;;;;3.10;2.30;;;;;;;19.02;60.69;99529.77;447545;1240;139368;-59
2024/04/07 19:27:06;;;;;;;2.40;2.00;;;;;;;18.94;60.71;99537.77;447188;1238;139544;-61
2024/04/07 19:37:11;;;;;;;3.90;2.00;;;;;;;18.83;60.81;99539.10;447578;1240;138652;-63
2024/04/07 19:47:18;;;;;;;3.10;2.80;;;;;;;18.71;61.12;99531.52;447125;1240;138919;-58
2024/04/07 19:57:21;;;;;;;4.90;2.70;;;;;;;18.62;61.39;99534.90;447083;1240;138703;-58
2024/04/07 20:07:25;;;;;;;2.90;2.00;;;;;;;18.53;61.65;99538.93;447852;1240;138579;-59
2024/04/07 20:17:29;;;;;;;2.50;1.90;;;;;;;18.42;61.97;99542.71;448179;1239;138972;-59
2024/04/07 20:27:32;;;;;;;2.60;2.40;;;;;;;18.29;62.31;99539.21;447379;1240;138815;-58
2024/04/07 20:37:35;;;;;;;5.50;2.80;;;;;;;18.13;62.72;99531.31;447153;1240;138556;-58
2024/04/07 20:47:39;;;;;;;2.90;2.40;;;;;;;17.97;63.26;99525.17;447666;1240;139154;-58
2024/04/07 20:57:43;;;;;;;8.80;4.80;;;;;;;17.85;63.64;99514.09;448016;1241;138618;-59
2024/04/07 21:07:47;;;;;;;5.20;3.50;;;;;;;17.72;64.15;99507.22;448128;1240;138457;-62
2024/04/07 21:17:51;;;;;;;3.40;2.80;;;;;;;17.56;64.63;99508.55;448324;1241;139084;-63
2024/04/07 21:27:54;;;;;;;5.90;3.80;;;;;;;17.39;65.25;99497.19;448467;1236;139154;-62
2024/04/07 21:37:57;;;;;;;4.50;3.10;;;;;;;17.24;65.89;99496.34;448238;1238;139137;-63
2024/04/07 21:48:00;;;;;;;4.50;3.50;;;;;;;17.09;66.49;99497.45;446860;1240;139174;-67
2024/04/07 21:58:06;;;;;;;3.30;2.30;;;;;;;16.98;66.92;99492.16;446850;1241;139801;-62
2024/04/07 22:08:09;;;;;;;3.50;2.50;;;;;;;16.84;67.43;99482.46;448573;1239;140071;-61
2024/04/07 22:18:15;;;;;;;3.60;3.30;;;;;;;16.68;67.81;99486.21;448093;1240;139808;-62
2024/04/07 22:28:18;;;;;;;4.90;2.30;;;;;;;16.53;68.36;99483.23;447404;1240;139604;-58
2024/04/07 22:38:22;;;;;;;3.10;2.80;;;;;;;16.39;68.84;99475.01;446654;1241;139843;-64
2024/04/07 22:48:25;;;;;;;3.50;2.50;;;;;;;16.24;69.47;99475.60;447209;1239;141934;-68
2024/04/07 22:58:28;;;;;;;6.10;2.80;;;;;;;16.07;70.08;99465.85;446200;1240;139917;-69
2024/04/07 23:08:31;;;;;;;3.60;3.00;;;;;;;15.97;70.77;99460.15;445830;1240;139454;-67
2024/04/07 23:18:36;;;;;;;3.90;3.30;;;;;;;15.83;71.22;99460.11;446227;1238;139935;-68
2024/04/07 23:28:41;;;;;;;5.90;3.30;;;;;;;15.62;71.78;99463.02;446211;1240;139804;-68
2024/04/07 23:38:44;;;;;;;4.00;3.30;;;;;;;15.45;72.71;99460.94;447421;1240;141632;-69
2024/04/07 23:48:48;;;;;;;4.40;3.90;;;;;;;15.26;73.34;99455.82;446188;1236;139181;-68
2024/04/07 23:58:51;;;;;;;4.90;3.50;;;;;;;15.05;74.01;99445.45;446349;1239;139355;-57
